createdAt,value
2018-07-21T00:00:32.946Z,734.00
2018-07-21T00:01:33.762Z,733.00
2018-07-21T00:02:34.526Z,735.00
2018-07-21T00:03:35.304Z,733.00
2018-07-21T00:04:36.076Z,733.00
2018-07-21T00:05:36.856Z,732.00
2018-07-21T00:06:37.661Z,734.00
2018-07-21T00:07:38.443Z,732.00
2018-07-21T00:08:39.223Z,733.00
2018-07-21T00:09:39.998Z,733.00
2018-07-21T00:10:40.779Z,733.00
2018-07-21T00:11:41.579Z,733.00
2018-07-21T00:12:42.359Z,733.00
2018-07-21T00:13:43.129Z,733.00
2018-07-21T00:14:43.905Z,733.00
2018-07-21T00:15:44.687Z,735.00
2018-07-21T00:17:14.691Z,733.00
2018-07-21T00:18:15.465Z,733.00
2018-07-21T00:19:16.253Z,733.00
2018-07-21T00:20:17.015Z,733.00
2018-07-21T00:21:17.791Z,733.00
2018-07-21T00:22:18.592Z,733.00
2018-07-21T00:23:19.368Z,733.00
2018-07-21T00:24:20.145Z,733.00
2018-07-21T00:25:20.920Z,733.00
2018-07-21T00:26:21.693Z,735.00
2018-07-21T00:27:22.502Z,735.00
2018-07-21T00:28:23.291Z,735.00
2018-07-21T00:29:24.052Z,735.00
2018-07-21T00:30:24.829Z,735.00
2018-07-21T00:31:25.603Z,734.00
2018-07-21T00:32:26.407Z,733.00
2018-07-21T00:33:27.192Z,734.00
2018-07-21T00:34:27.966Z,733.00
2018-07-21T00:35:28.741Z,733.00
2018-07-21T00:36:29.532Z,733.00
2018-07-21T00:37:30.332Z,733.00
2018-07-21T00:38:31.118Z,733.00
2018-07-21T00:39:31.884Z,733.00
2018-07-21T00:40:32.668Z,734.00
2018-07-21T00:41:33.433Z,734.00
2018-07-21T00:42:34.248Z,734.00
2018-07-21T00:43:35.014Z,734.00
2018-07-21T00:44:35.798Z,734.00
2018-07-21T00:45:36.565Z,735.00
2018-07-21T00:46:37.347Z,734.00
2018-07-21T00:47:38.148Z,734.00
2018-07-21T00:48:39.928Z,733.00
2018-07-21T00:49:39.700Z,734.00
2018-07-21T00:50:40.480Z,734.00
2018-07-21T00:51:41.253Z,735.00
2018-07-21T00:52:42.070Z,737.00
2018-07-21T00:53:42.838Z,736.00
2018-07-21T00:54:43.619Z,738.00
2018-07-21T00:55:44.391Z,736.00
2018-07-21T00:56:45.169Z,735.00
2018-07-21T00:57:45.973Z,735.00
2018-07-21T00:58:46.752Z,735.00
2018-07-21T00:59:47.533Z,736.00
2018-07-21T01:00:48.310Z,735.00
2018-07-21T01:01:49.175Z,736.00
2018-07-21T01:02:48.904Z,735.00
2018-07-21T01:03:50.679Z,736.00
2018-07-21T01:04:51.464Z,735.00
2018-07-21T01:05:52.234Z,735.00
2018-07-21T01:06:53.011Z,735.00
2018-07-21T01:07:53.817Z,736.00
2018-07-21T01:08:54.601Z,736.00
2018-07-21T01:09:55.372Z,735.00
2018-07-21T01:10:56.152Z,735.00
2018-07-21T01:11:56.952Z,736.00
2018-07-21T01:12:57.739Z,739.00
2018-07-21T01:13:58.521Z,737.00
2018-07-21T01:14:59.299Z,737.00
2018-07-21T01:16:00.072Z,737.00
2018-07-21T01:17:00.874Z,736.00
2018-07-21T01:18:02.655Z,736.00
2018-07-21T01:19:02.433Z,738.00
2018-07-21T01:20:03.211Z,736.00
2018-07-21T01:21:03.987Z,737.00
2018-07-21T01:22:04.761Z,736.00
2018-07-21T01:23:05.563Z,736.00
2018-07-21T01:24:06.428Z,736.00
2018-07-21T01:25:06.127Z,736.00
2018-07-21T01:26:07.905Z,736.00
2018-07-21T01:27:08.686Z,738.00
2018-07-21T01:28:09.492Z,736.00
2018-07-21T01:29:10.279Z,736.00
2018-07-21T01:30:11.043Z,736.00
2018-07-21T01:31:11.826Z,738.00
2018-07-21T01:32:12.598Z,738.00
2018-07-21T01:33:13.402Z,736.00
2018-07-21T01:34:14.176Z,736.00
2018-07-21T01:35:14.952Z,736.00
2018-07-21T01:36:15.732Z,736.00
2018-07-21T01:37:16.510Z,736.00
2018-07-21T01:38:17.333Z,736.00
2018-07-21T01:39:18.096Z,736.00
2018-07-21T01:40:18.875Z,738.00
2018-07-21T01:41:19.647Z,736.00
2018-07-21T01:42:20.427Z,738.00
2018-07-21T01:43:21.230Z,737.00
2018-07-21T01:44:22.013Z,737.00
2018-07-21T01:45:22.787Z,739.00
2018-07-21T01:46:23.565Z,736.00
2018-07-21T01:47:24.340Z,737.00
2018-07-21T01:48:25.151Z,737.00
2018-07-21T01:49:25.922Z,738.00
2018-07-21T01:50:26.701Z,736.00
2018-07-21T01:51:27.472Z,736.00
2018-07-21T01:52:28.253Z,736.00
2018-07-21T01:53:29.052Z,737.00
2018-07-21T01:54:29.834Z,737.00
2018-07-21T01:55:30.606Z,737.00
2018-07-21T01:56:31.382Z,737.00
2018-07-21T01:57:32.182Z,737.00
2018-07-21T01:58:32.974Z,738.00
2018-07-21T01:59:33.755Z,737.00
2018-07-21T02:00:34.527Z,736.00
2018-07-21T02:01:35.305Z,737.00
2018-07-21T02:02:36.077Z,737.00
2018-07-21T02:03:36.884Z,739.00
2018-07-21T02:04:36.660Z,737.00
2018-07-21T02:05:38.438Z,737.00
2018-07-21T02:06:42.102Z,737.00
2018-07-21T02:07:40.398Z,738.00
2018-07-21T02:08:41.117Z,739.00
2018-07-21T02:19:07.361Z,740.00
2018-07-21T02:20:08.172Z,739.00
2018-07-21T02:21:08.944Z,738.00
2018-07-21T02:22:09.721Z,738.00
2018-07-21T02:23:10.494Z,738.00
2018-07-21T02:24:11.274Z,740.00
2018-07-21T02:25:12.072Z,744.00
2018-07-21T02:26:12.847Z,739.00
2018-07-21T02:27:13.622Z,740.00
2018-07-21T02:28:14.401Z,739.00
2018-07-21T02:29:15.177Z,741.00
2018-07-21T02:30:15.987Z,739.00
2018-07-21T02:31:16.757Z,739.00
2018-07-21T02:32:17.535Z,739.00
2018-07-21T02:33:18.307Z,739.00
2018-07-21T02:34:19.085Z,740.00
2018-07-21T02:35:19.916Z,739.00
2018-07-21T02:36:20.715Z,739.00
2018-07-21T02:37:21.464Z,741.00
2018-07-21T02:38:22.252Z,741.00
2018-07-21T02:39:23.015Z,740.00
2018-07-21T02:40:23.814Z,739.00
2018-07-21T02:41:24.597Z,739.00
2018-07-21T02:42:25.368Z,738.00
2018-07-21T02:43:26.147Z,741.00
2018-07-21T02:44:26.918Z,739.00
2018-07-21T02:45:27.727Z,739.00
2018-07-21T02:46:28.500Z,739.00
2018-07-21T02:47:29.272Z,741.00
2018-07-21T02:48:30.048Z,739.00
2018-07-21T02:49:30.830Z,739.00
2018-07-21T02:50:31.628Z,739.00
2018-07-21T02:51:32.408Z,740.00
2018-07-21T02:52:33.184Z,741.00
2018-07-21T02:53:33.958Z,739.00
2018-07-21T02:54:34.734Z,739.00
2018-07-21T02:55:35.537Z,739.00
2018-07-21T02:56:36.313Z,742.00
2018-07-21T02:57:37.104Z,741.00
2018-07-21T02:58:37.866Z,740.00
2018-07-21T02:59:38.725Z,741.00
2018-07-21T03:00:38.455Z,741.00
2018-07-21T03:01:40.234Z,744.00
2018-07-21T03:02:41.010Z,741.00
2018-07-21T03:03:41.787Z,742.00
2018-07-21T03:04:42.564Z,744.00
2018-07-21T03:05:43.365Z,745.00
2018-07-21T03:06:44.142Z,742.00
2018-07-21T03:07:44.913Z,741.00
2018-07-21T03:08:45.688Z,744.00
2018-07-21T03:09:46.485Z,741.00
2018-07-21T03:10:47.272Z,744.00
2018-07-21T03:11:48.055Z,744.00
2018-07-21T03:12:48.828Z,744.00
2018-07-21T03:13:49.599Z,742.00
2018-07-21T03:14:50.392Z,745.00
2018-07-21T03:15:51.194Z,744.00
2018-07-21T03:16:51.974Z,744.00
2018-07-21T03:17:52.746Z,742.00
2018-07-21T03:18:53.528Z,742.00
2018-07-21T03:19:54.296Z,744.00
2018-07-21T03:20:55.101Z,741.00
2018-07-21T03:21:55.888Z,741.00
2018-07-21T03:22:56.651Z,740.00
2018-07-21T03:23:57.426Z,740.00
2018-07-21T03:24:58.205Z,739.00
2018-07-21T03:25:59.005Z,741.00
2018-07-21T03:26:59.797Z,739.00
2018-07-21T03:28:00.563Z,739.00
2018-07-21T03:29:01.339Z,740.00
2018-07-21T03:30:02.111Z,739.00
2018-07-21T03:31:01.965Z,739.00
2018-07-21T03:32:02.703Z,742.00
2018-07-21T03:33:04.476Z,744.00
2018-07-21T03:34:05.250Z,741.00
2018-07-21T03:35:06.026Z,742.00
2018-07-21T03:36:06.831Z,741.00
2018-07-21T03:37:07.610Z,741.00
2018-07-21T03:38:08.390Z,741.00
2018-07-21T03:39:09.165Z,739.00
2018-07-21T03:40:09.941Z,739.00
2018-07-21T03:41:10.743Z,740.00
2018-07-21T03:42:11.530Z,744.00
2018-07-21T03:43:12.292Z,742.00
2018-07-21T03:44:13.070Z,742.00
2018-07-21T03:45:13.851Z,744.00
2018-07-21T03:46:15.652Z,744.00
2018-07-21T03:47:15.425Z,746.00
2018-07-21T03:48:16.216Z,746.00
2018-07-21T03:49:16.991Z,746.00
2018-07-21T03:50:17.767Z,746.00
2018-07-21T03:51:18.570Z,746.00
2018-07-21T03:52:19.352Z,745.00
2018-07-21T03:53:20.120Z,745.00
2018-07-21T03:54:20.979Z,745.00
2018-07-21T03:55:20.684Z,745.00
2018-07-21T03:56:21.496Z,745.00
2018-07-21T03:57:23.272Z,741.00
2018-07-21T03:58:24.042Z,741.00
2018-07-21T03:59:24.819Z,742.00
2018-07-21T04:00:25.609Z,744.00
2018-07-21T04:01:26.404Z,742.00
2018-07-21T04:02:27.178Z,746.00
2018-07-21T04:03:27.953Z,747.00
2018-07-21T04:04:28.729Z,747.00
2018-07-21T04:05:29.505Z,747.00
2018-07-21T04:06:30.307Z,747.00
2018-07-21T04:07:31.081Z,744.00
2018-07-21T04:08:31.860Z,742.00
2018-07-21T04:09:33.098Z,747.00
2018-07-21T04:10:33.349Z,748.00
2018-07-21T04:11:32.641Z,749.00
2018-07-21T04:22:03.360Z,753.00
2018-07-21T04:23:03.163Z,757.00
2018-07-21T04:24:03.969Z,759.00
2018-07-21T04:25:05.722Z,761.00
2018-07-21T04:26:06.496Z,760.00
2018-07-21T04:27:07.273Z,763.00
2018-07-21T04:28:08.076Z,764.00
2018-07-21T04:29:08.848Z,764.00
2018-07-21T04:30:09.628Z,765.00
2018-07-21T04:31:10.409Z,762.00
2018-07-21T04:32:11.174Z,758.00
2018-07-21T04:33:11.973Z,754.00
2018-07-21T04:34:12.783Z,752.00
2018-07-21T04:35:12.770Z,751.00
2018-07-21T04:36:13.494Z,750.00
2018-07-21T04:37:14.263Z,749.00
2018-07-21T04:38:16.056Z,748.00
2018-07-21T04:39:16.861Z,750.00
2018-07-21T04:40:17.627Z,749.00
2018-07-21T04:41:18.449Z,752.00
2018-07-21T04:42:18.199Z,753.00
2018-07-21T04:43:20.004Z,753.00
2018-07-21T04:44:20.781Z,757.00
2018-07-21T04:45:21.553Z,760.00
2018-07-21T04:46:22.329Z,762.00
2018-07-21T04:47:23.104Z,762.00
2018-07-21T04:48:23.909Z,765.00
2018-07-21T04:49:24.689Z,764.00
2018-07-21T04:50:25.460Z,763.00
2018-07-21T04:51:26.243Z,761.00
2018-07-21T04:52:27.012Z,759.00
2018-07-21T04:53:27.815Z,754.00
2018-07-21T04:54:28.591Z,752.00
2018-07-21T04:55:29.369Z,751.00
2018-07-21T04:56:30.144Z,751.00
2018-07-21T04:57:31.917Z,749.00
2018-07-21T04:58:31.718Z,749.00
2018-07-21T04:59:32.505Z,748.00
2018-07-21T05:00:33.281Z,748.00
2018-07-21T05:01:34.056Z,748.00
2018-07-21T05:02:34.829Z,747.00
2018-07-21T05:03:35.633Z,746.00
2018-07-21T05:04:36.403Z,746.00
2018-07-21T05:05:37.180Z,746.00
2018-07-21T05:06:37.954Z,745.00
2018-07-21T05:07:38.732Z,746.00
2018-07-21T05:08:39.543Z,746.00
2018-07-21T05:09:40.312Z,747.00
2018-07-21T05:10:41.091Z,751.00
2018-07-21T05:11:41.864Z,754.00
2018-07-21T05:12:42.641Z,753.00
2018-07-21T05:13:44.445Z,752.00
2018-07-21T05:14:44.215Z,750.00
2018-07-21T05:15:44.993Z,749.00
2018-07-21T05:16:45.768Z,748.00
2018-07-21T05:17:46.543Z,747.00
2018-07-21T05:18:47.360Z,746.00
2018-07-21T05:19:48.138Z,746.00
2018-07-21T05:20:48.907Z,746.00
2018-07-21T05:21:49.694Z,745.00
2018-07-21T05:22:50.459Z,745.00
2018-07-21T05:23:52.266Z,745.00
2018-07-21T05:24:52.044Z,745.00
2018-07-21T05:25:52.822Z,745.00
2018-07-21T05:26:53.592Z,745.00
2018-07-21T05:27:54.374Z,745.00
2018-07-21T05:28:55.172Z,745.00
2018-07-21T05:29:55.958Z,745.00
2018-07-21T05:30:56.731Z,746.00
2018-07-21T05:31:57.523Z,745.00
2018-07-21T05:32:58.286Z,745.00
2018-07-21T05:33:59.099Z,745.00
2018-07-21T05:34:59.868Z,744.00
2018-07-21T05:36:00.648Z,744.00
2018-07-21T05:37:01.416Z,742.00
2018-07-21T05:38:02.196Z,742.00
2018-07-21T05:39:03.017Z,742.00
2018-07-21T05:40:03.775Z,742.00
2018-07-21T05:41:04.549Z,742.00
2018-07-21T05:42:05.331Z,745.00
2018-07-21T05:43:06.106Z,746.00
2018-07-21T05:44:06.920Z,744.00
2018-07-21T05:45:07.771Z,742.00
2018-07-21T05:46:07.480Z,744.00
2018-07-21T05:47:09.239Z,741.00
2018-07-21T05:48:10.024Z,744.00
2018-07-21T05:49:10.837Z,741.00
2018-07-21T05:50:11.600Z,741.00
2018-07-21T05:51:12.383Z,741.00
2018-07-21T05:52:13.161Z,741.00
2018-07-21T05:53:13.985Z,744.00
2018-07-21T05:54:13.749Z,744.00
2018-07-21T05:55:15.523Z,742.00
2018-07-21T05:56:16.298Z,742.00
2018-07-21T05:57:17.076Z,745.00
2018-07-21T05:58:17.862Z,742.00
2018-07-21T05:59:18.666Z,744.00
2018-07-21T06:00:19.447Z,742.00
2018-07-21T06:01:20.222Z,744.00
2018-07-21T06:02:20.997Z,741.00
2018-07-21T06:03:21.773Z,741.00
2018-07-21T06:04:22.583Z,741.00
2018-07-21T06:05:23.362Z,741.00
2018-07-21T06:06:24.134Z,742.00
2018-07-21T06:07:24.910Z,741.00
2018-07-21T06:08:25.685Z,741.00
2018-07-21T06:09:25.491Z,741.00
2018-07-21T06:10:27.263Z,744.00
2018-07-21T06:11:28.040Z,741.00
2018-07-21T06:12:28.823Z,741.00
2018-07-21T06:13:29.592Z,741.00
2018-07-21T06:14:30.403Z,742.00
2018-07-21T06:15:31.177Z,741.00
2018-07-21T06:16:32.393Z,740.00
2018-07-21T06:17:33.719Z,739.00
2018-07-21T06:18:32.006Z,740.00
2018-07-21T06:20:00.488Z,740.00
2018-07-21T06:21:01.264Z,739.00
2018-07-21T06:22:02.036Z,739.00
2018-07-21T06:23:02.811Z,739.00
2018-07-21T06:24:03.586Z,739.00
2018-07-21T06:25:04.391Z,741.00
2018-07-21T06:26:05.169Z,739.00
2018-07-21T06:27:05.950Z,739.00
2018-07-21T06:28:06.794Z,739.00
2018-07-21T06:29:06.503Z,741.00
2018-07-21T06:30:08.305Z,739.00
2018-07-21T06:31:09.092Z,739.00
2018-07-21T06:32:09.856Z,740.00
2018-07-21T06:33:10.640Z,740.00
2018-07-21T06:34:11.408Z,744.00
2018-07-21T06:35:12.218Z,740.00
2018-07-21T06:36:12.992Z,739.00
2018-07-21T06:37:13.766Z,740.00
2018-07-21T06:38:14.538Z,741.00
2018-07-21T06:39:15.318Z,739.00
2018-07-21T06:40:16.118Z,739.00
2018-07-21T06:41:17.896Z,739.00
2018-07-21T06:42:17.668Z,738.00
2018-07-21T06:43:18.454Z,740.00
2018-07-21T06:44:19.231Z,740.00
2018-07-21T06:45:20.030Z,738.00
2018-07-21T06:46:20.807Z,738.00
2018-07-21T06:47:21.591Z,739.00
2018-07-21T06:48:22.361Z,738.00
2018-07-21T06:49:23.140Z,737.00
2018-07-21T06:50:23.943Z,737.00
2018-07-21T06:51:24.720Z,737.00
2018-07-21T06:52:25.495Z,738.00
2018-07-21T06:53:26.273Z,738.00
2018-07-21T06:54:27.091Z,736.00
2018-07-21T06:55:26.858Z,736.00
2018-07-21T06:56:28.645Z,738.00
2018-07-21T06:57:29.410Z,736.00
2018-07-21T06:58:30.193Z,736.00
2018-07-21T06:59:31.053Z,736.00
2018-07-21T07:00:30.799Z,736.00
2018-07-21T07:01:32.572Z,738.00
2018-07-21T07:02:33.336Z,738.00
2018-07-21T07:03:34.117Z,736.00
2018-07-21T07:04:34.926Z,738.00
2018-07-21T07:05:35.689Z,736.00
2018-07-21T07:06:36.468Z,736.00
2018-07-21T07:07:37.237Z,736.00
2018-07-21T07:08:38.018Z,736.00
2018-07-21T07:09:38.793Z,736.00
2018-07-21T07:10:39.595Z,738.00
2018-07-21T07:11:40.373Z,738.00
2018-07-21T07:12:41.148Z,737.00
2018-07-21T07:13:41.932Z,736.00
2018-07-21T07:14:42.711Z,738.00
2018-07-21T07:15:43.510Z,736.00
2018-07-21T07:16:44.287Z,736.00
2018-07-21T07:17:45.072Z,737.00
2018-07-21T07:18:45.844Z,736.00
2018-07-21T07:19:46.617Z,736.00
2018-07-21T07:20:47.422Z,735.00
2018-07-21T07:21:48.207Z,736.00
2018-07-21T07:22:48.982Z,738.00
2018-07-21T07:23:49.757Z,738.00
2018-07-21T07:24:50.535Z,736.00
2018-07-21T07:25:51.345Z,737.00
2018-07-21T07:26:52.118Z,737.00
2018-07-21T07:27:52.899Z,736.00
2018-07-21T07:28:53.675Z,737.00
2018-07-21T07:29:54.450Z,738.00
2018-07-21T07:30:55.271Z,737.00
2018-07-21T07:31:56.043Z,736.00
2018-07-21T07:32:56.822Z,735.00
2018-07-21T07:33:57.597Z,735.00
2018-07-21T07:34:58.378Z,735.00
2018-07-21T07:35:59.276Z,735.00
2018-07-21T07:36:58.976Z,734.00
2018-07-21T07:38:00.754Z,736.00
2018-07-21T07:39:01.534Z,733.00
2018-07-21T07:40:02.309Z,733.00
2018-07-21T07:41:03.111Z,732.00
2018-07-21T07:42:03.906Z,734.00
2018-07-21T07:43:03.665Z,730.00
2018-07-21T07:44:05.441Z,729.00
2018-07-21T07:45:06.224Z,729.00
2018-07-21T07:46:07.019Z,729.00
2018-07-21T07:47:07.799Z,729.00
2018-07-21T07:48:08.574Z,729.00
2018-07-21T07:49:09.351Z,729.00
2018-07-21T07:50:10.126Z,729.00
2018-07-21T07:51:09.951Z,730.00
2018-07-21T07:52:11.734Z,729.00
2018-07-21T07:53:12.496Z,728.00
2018-07-21T07:54:13.278Z,728.00
2018-07-21T07:55:14.049Z,728.00
2018-07-21T07:56:14.853Z,728.00
2018-07-21T07:57:15.628Z,727.00
2018-07-21T07:58:17.412Z,727.00
2018-07-21T07:59:17.179Z,727.00
2018-07-21T08:00:17.962Z,727.00
2018-07-21T08:01:18.790Z,727.00
2018-07-21T08:02:18.542Z,727.00
2018-07-21T08:03:20.322Z,726.00
2018-07-21T08:04:21.107Z,726.00
2018-07-21T08:05:21.870Z,726.00
2018-07-21T08:06:22.676Z,726.00
2018-07-21T08:07:23.451Z,726.00
2018-07-21T08:08:24.237Z,726.00
2018-07-21T08:09:24.002Z,726.00
2018-07-21T08:10:25.777Z,726.00
2018-07-21T08:11:26.581Z,726.00
2018-07-21T08:12:27.363Z,725.00
2018-07-21T08:13:28.138Z,725.00
2018-07-21T08:14:29.339Z,728.00
2018-07-21T08:15:29.602Z,729.00
2018-07-21T08:16:28.918Z,732.00
2018-07-21T08:17:37.321Z,729.00
2018-07-21T08:18:38.106Z,729.00
2018-07-21T08:19:38.872Z,727.00
2018-07-21T08:20:39.650Z,727.00
2018-07-21T08:21:40.517Z,727.00
2018-07-21T08:22:41.296Z,729.00
2018-07-21T08:23:42.072Z,727.00
2018-07-21T08:24:42.850Z,727.00
2018-07-21T08:25:44.623Z,727.00
2018-07-21T08:26:44.428Z,726.00
2018-07-21T08:27:45.226Z,727.00
2018-07-21T08:28:45.991Z,726.00
2018-07-21T08:29:46.772Z,726.00
2018-07-21T08:30:47.548Z,726.00
2018-07-21T08:31:48.352Z,726.00
2018-07-21T08:32:49.133Z,726.00
2018-07-21T08:33:49.911Z,727.00
2018-07-21T08:34:50.687Z,727.00
2018-07-21T08:35:51.462Z,726.00
2018-07-21T08:36:52.272Z,728.00
2018-07-21T08:37:53.048Z,726.00
2018-07-21T08:38:53.827Z,726.00
2018-07-21T08:39:54.602Z,727.00
2018-07-21T08:40:55.383Z,727.00
2018-07-21T08:41:56.203Z,727.00
2018-07-21T08:42:56.969Z,726.00
2018-07-21T08:43:57.752Z,726.00
2018-07-21T08:44:58.526Z,726.00
2018-07-21T08:45:59.304Z,727.00
2018-07-21T08:47:00.132Z,727.00
2018-07-21T08:48:00.894Z,726.00
2018-07-21T08:49:01.678Z,726.00
2018-07-21T08:50:02.446Z,726.00
2018-07-21T08:51:03.229Z,727.00
2018-07-21T08:52:04.028Z,725.00
2018-07-21T08:53:04.812Z,725.00
2018-07-21T08:54:05.591Z,726.00
2018-07-21T08:55:06.363Z,728.00
2018-07-21T08:56:07.202Z,727.00
2018-07-21T08:57:06.955Z,727.00
2018-07-21T08:58:08.723Z,727.00
2018-07-21T08:59:09.499Z,729.00
2018-07-21T09:00:10.279Z,727.00
2018-07-21T09:01:11.052Z,728.00
2018-07-21T09:02:11.862Z,728.00
2018-07-21T09:03:12.637Z,727.00
2018-07-21T09:04:13.413Z,729.00
2018-07-21T09:05:14.191Z,727.00
2018-07-21T09:06:14.981Z,727.00
2018-07-21T09:07:15.768Z,727.00
2018-07-21T09:08:16.552Z,727.00
2018-07-21T09:09:17.324Z,727.00
2018-07-21T09:10:18.102Z,726.00
2018-07-21T09:11:18.878Z,726.00
2018-07-21T09:12:19.679Z,726.00
2018-07-21T09:13:20.454Z,728.00
2018-07-21T09:14:21.237Z,726.00
2018-07-21T09:15:22.014Z,726.00
2018-07-21T09:16:22.790Z,726.00
2018-07-21T09:17:23.598Z,726.00
2018-07-21T09:18:24.379Z,728.00
2018-07-21T09:19:25.148Z,726.00
2018-07-21T09:20:25.931Z,727.00
2018-07-21T09:21:26.763Z,727.00
2018-07-21T09:22:26.508Z,727.00
2018-07-21T09:23:28.283Z,726.00
2018-07-21T09:24:29.056Z,726.00
2018-07-21T09:25:29.833Z,726.00
2018-07-21T09:26:30.605Z,726.00
2018-07-21T09:27:31.410Z,728.00
2018-07-21T09:28:32.192Z,726.00
2018-07-21T09:29:32.967Z,726.00
2018-07-21T09:30:33.747Z,726.00
2018-07-21T09:31:34.527Z,727.00
2018-07-21T09:32:35.328Z,727.00
2018-07-21T09:33:36.101Z,727.00
2018-07-21T09:34:36.879Z,728.00
2018-07-21T09:35:37.661Z,728.00
2018-07-21T09:36:38.430Z,727.00
2018-07-21T09:37:39.243Z,727.00
2018-07-21T09:38:40.103Z,727.00
2018-07-21T09:39:40.804Z,727.00
2018-07-21T09:40:41.582Z,728.00
2018-07-21T09:41:42.356Z,728.00
2018-07-21T09:42:43.170Z,728.00
2018-07-21T09:43:43.945Z,729.00
2018-07-21T09:44:44.732Z,729.00
2018-07-21T09:45:45.495Z,730.00
2018-07-21T09:46:46.355Z,732.00
2018-07-21T09:47:46.100Z,732.00
2018-07-21T09:48:47.864Z,732.00
2018-07-21T09:49:48.647Z,732.00
2018-07-21T09:50:49.422Z,732.00
2018-07-21T09:51:51.197Z,730.00
2018-07-21T09:52:51.002Z,729.00
2018-07-21T09:53:51.783Z,729.00
2018-07-21T09:54:52.560Z,728.00
2018-07-21T09:55:52.466Z,728.00
2018-07-21T09:56:53.125Z,728.00
2018-07-21T09:57:54.922Z,728.00
2018-07-21T09:58:55.707Z,729.00
2018-07-21T09:59:56.474Z,728.00
2018-07-21T10:00:57.261Z,728.00
2018-07-21T10:01:58.024Z,729.00
2018-07-21T10:02:58.832Z,729.00
2018-07-21T10:03:59.609Z,729.00
2018-07-21T10:05:00.383Z,728.00
2018-07-21T10:06:01.157Z,728.00
2018-07-21T10:07:01.935Z,728.00
2018-07-21T10:08:02.739Z,728.00
2018-07-21T10:09:03.534Z,728.00
2018-07-21T10:10:04.730Z,727.00
2018-07-21T10:13:52.091Z,728.00
2018-07-21T10:14:52.867Z,729.00
2018-07-21T10:15:53.650Z,728.00
2018-07-21T10:16:54.410Z,728.00
2018-07-21T10:17:55.201Z,730.00
2018-07-21T10:18:55.991Z,728.00
2018-07-21T10:19:56.765Z,728.00
2018-07-21T10:20:57.538Z,728.00
2018-07-21T10:21:58.397Z,728.00
2018-07-21T10:22:58.107Z,728.00
2018-07-21T10:23:59.899Z,728.00
2018-07-21T10:25:00.674Z,728.00
2018-07-21T10:26:01.454Z,727.00
2018-07-21T10:27:02.229Z,727.00
2018-07-21T10:28:02.997Z,727.00
2018-07-21T10:29:03.801Z,726.00
2018-07-21T10:30:04.629Z,727.00
2018-07-21T10:31:04.352Z,728.00
2018-07-21T10:32:06.125Z,728.00
2018-07-21T10:33:06.961Z,726.00
2018-07-21T10:34:06.707Z,726.00
2018-07-21T10:35:08.492Z,726.00
2018-07-21T10:36:09.264Z,726.00
2018-07-21T10:37:10.037Z,726.00
2018-07-21T10:38:10.890Z,725.00
2018-07-21T10:39:10.618Z,725.00
2018-07-21T10:40:12.393Z,725.00
2018-07-21T10:41:13.176Z,725.00
2018-07-21T10:42:13.947Z,725.00
2018-07-21T10:43:14.725Z,725.00
2018-07-21T10:44:15.529Z,725.00
2018-07-21T10:45:16.307Z,725.00
2018-07-21T10:46:17.080Z,724.00
2018-07-21T10:47:17.859Z,724.00
2018-07-21T10:48:18.652Z,723.00
2018-07-21T10:49:19.455Z,723.00
2018-07-21T10:50:20.232Z,724.00
2018-07-21T10:51:21.004Z,725.00
2018-07-21T10:52:21.783Z,725.00
2018-07-21T10:53:22.655Z,724.00
2018-07-21T10:54:22.386Z,726.00
2018-07-21T10:55:24.160Z,723.00
2018-07-21T10:56:24.942Z,724.00
2018-07-21T10:57:25.721Z,724.00
2018-07-21T10:58:26.508Z,723.00
2018-07-21T10:59:27.303Z,723.00
2018-07-21T11:00:28.081Z,723.00
2018-07-21T11:01:28.857Z,722.00
2018-07-21T11:02:29.632Z,724.00
2018-07-21T11:03:30.435Z,724.00
2018-07-21T11:04:31.243Z,722.00
2018-07-21T11:05:32.019Z,721.00
2018-07-21T11:06:32.796Z,725.00
2018-07-21T11:07:33.568Z,723.00
2018-07-21T11:08:34.436Z,723.00
2018-07-21T11:09:34.166Z,723.00
2018-07-21T11:10:35.940Z,724.00
2018-07-21T11:11:36.719Z,721.00
2018-07-21T11:12:37.496Z,721.00
2018-07-21T11:13:38.268Z,720.00
2018-07-21T11:14:39.074Z,720.00
2018-07-21T11:15:39.857Z,721.00
2018-07-21T11:16:40.628Z,718.00
2018-07-21T11:17:41.410Z,720.00
2018-07-21T11:18:42.185Z,718.00
2018-07-21T11:19:43.983Z,718.00
2018-07-21T11:20:43.757Z,718.00
2018-07-21T11:21:44.544Z,717.00
2018-07-21T11:22:45.319Z,720.00
2018-07-21T11:23:46.100Z,720.00
2018-07-21T11:24:46.900Z,720.00
2018-07-21T11:25:47.683Z,717.00
2018-07-21T11:26:48.456Z,717.00
2018-07-21T11:27:49.232Z,716.00
2018-07-21T11:28:50.007Z,718.00
2018-07-21T11:29:50.812Z,717.00
2018-07-21T11:30:51.598Z,716.00
2018-07-21T11:31:52.377Z,716.00
2018-07-21T11:32:53.160Z,716.00
2018-07-21T11:33:53.929Z,718.00
2018-07-21T11:34:54.739Z,716.00
2018-07-21T11:35:55.778Z,716.00
2018-07-21T11:36:55.297Z,721.00
2018-07-21T11:37:57.072Z,718.00
2018-07-21T11:38:57.850Z,717.00
2018-07-21T11:39:58.663Z,717.00
2018-07-21T11:40:59.437Z,717.00
2018-07-21T11:42:00.212Z,717.00
2018-07-21T11:43:00.987Z,720.00
2018-07-21T11:44:01.763Z,717.00
2018-07-21T11:45:02.590Z,717.00
2018-07-21T11:46:03.354Z,718.00
2018-07-21T11:47:04.140Z,718.00
2018-07-21T11:48:04.907Z,717.00
2018-07-21T11:49:05.685Z,718.00
2018-07-21T11:50:06.490Z,718.00
2018-07-21T11:51:07.267Z,718.00
2018-07-21T11:52:08.041Z,720.00
2018-07-21T11:53:09.811Z,718.00
2018-07-21T11:54:09.591Z,718.00
2018-07-21T11:55:10.401Z,717.00
2018-07-21T11:56:11.175Z,717.00
2018-07-21T11:57:11.961Z,717.00
2018-07-21T11:58:12.728Z,717.00
2018-07-21T11:59:13.567Z,717.00
2018-07-21T12:00:13.314Z,717.00
2018-07-21T12:01:15.090Z,717.00
2018-07-21T12:02:15.863Z,717.00
2018-07-21T12:03:16.640Z,717.00
2018-07-21T12:04:17.421Z,717.00
2018-07-21T12:05:18.289Z,717.00
2018-07-21T12:06:18.003Z,716.00
2018-07-21T12:07:19.779Z,716.00
2018-07-21T12:08:20.981Z,715.00
2018-07-21T12:09:21.248Z,715.00
2018-07-21T12:10:20.564Z,717.00
2018-07-21T12:11:29.819Z,716.00
2018-07-21T12:12:30.678Z,715.00
2018-07-21T12:13:30.430Z,715.00
2018-07-21T12:14:31.200Z,715.00
2018-07-21T12:15:31.957Z,716.00
2018-07-21T12:16:33.737Z,714.00
2018-07-21T12:17:34.610Z,714.00
2018-07-21T12:18:34.303Z,714.00
2018-07-21T12:19:36.085Z,713.00
2018-07-21T12:20:36.891Z,714.00
2018-07-21T12:21:37.667Z,713.00
2018-07-21T12:22:38.441Z,714.00
2018-07-21T12:23:38.218Z,714.00
2018-07-21T12:24:39.991Z,714.00
2018-07-21T12:25:40.800Z,714.00
2018-07-21T12:26:41.582Z,715.00
2018-07-21T12:27:42.347Z,716.00
2018-07-21T12:28:43.130Z,714.00
2018-07-21T12:29:43.899Z,714.00
2018-07-21T12:30:44.701Z,713.00
2018-07-21T12:31:45.480Z,713.00
2018-07-21T12:32:46.254Z,713.00
2018-07-21T12:33:47.147Z,714.00
2018-07-21T12:34:46.805Z,714.00
2018-07-21T12:35:48.611Z,713.00
2018-07-21T12:36:49.387Z,712.00
2018-07-21T12:37:50.166Z,713.00
2018-07-21T12:38:50.939Z,714.00
2018-07-21T12:39:51.717Z,714.00
2018-07-21T12:40:52.536Z,714.00
2018-07-21T12:41:53.298Z,714.00
2018-07-21T12:42:54.081Z,714.00
2018-07-21T12:43:54.852Z,716.00
2018-07-21T12:44:55.651Z,715.00
2018-07-21T12:45:55.436Z,717.00
2018-07-21T12:46:57.214Z,715.00
2018-07-21T12:47:57.994Z,716.00
2018-07-21T12:48:58.769Z,715.00
2018-07-21T12:49:59.562Z,715.00
2018-07-21T12:51:00.357Z,720.00
2018-07-21T12:52:01.129Z,718.00
2018-07-21T12:53:01.907Z,720.00
2018-07-21T12:54:02.680Z,718.00
2018-07-21T12:55:03.457Z,720.00
2018-07-21T12:56:04.265Z,720.00
2018-07-21T12:57:05.035Z,718.00
2018-07-21T12:58:05.833Z,718.00
2018-07-21T12:59:06.602Z,717.00
2018-07-21T13:00:07.381Z,716.00
2018-07-21T13:01:08.187Z,720.00